createdAt,value
2022-09-11T00:01:14.555Z,38.30
2022-09-11T00:03:43.295Z,38.03
2022-09-11T00:06:13.373Z,40.23
2022-09-11T00:08:41.395Z,41.40
2022-09-11T00:11:17.657Z,44.63
2022-09-11T00:13:50.226Z,32.28
2022-09-11T00:16:28.713Z,39.97
2022-09-11T00:18:58.120Z,39.30
2022-09-11T00:21:25.474Z,37.63
2022-09-11T00:23:52.248Z,38.67
2022-09-11T00:26:19.543Z,39.58
2022-09-11T00:28:46.669Z,39.65
2022-09-11T00:31:16.898Z,45.17
2022-09-11T00:33:44.835Z,46.85
2022-09-11T00:36:17.452Z,43.95
2022-09-11T00:38:46.357Z,52.65
2022-09-11T00:41:17.141Z,59.53
2022-09-11T00:43:52.896Z,46.87
2022-09-11T00:46:21.003Z,48.95
2022-09-11T00:48:50.702Z,49.95
2022-09-11T00:51:26.719Z,46.15
2022-09-11T00:53:56.400Z,49.00
2022-09-11T00:56:26.386Z,45.77
2022-09-11T00:58:55.687Z,55.50
2022-09-11T01:01:22.358Z,48.63
2022-09-11T01:03:49.225Z,46.88
2022-09-11T01:06:16.363Z,50.13
2022-09-11T01:08:43.748Z,48.67
2022-09-11T01:11:21.125Z,51.45
2022-09-11T01:14:19.971Z,49.90
2022-09-11T01:16:56.967Z,48.05
2022-09-11T01:20:06.534Z,53.85
2022-09-11T01:22:51.880Z,42.83
2022-09-11T01:25:28.029Z,45.72
2022-09-11T01:27:59.012Z,50.78
2022-09-11T01:30:35.582Z,46.10
2022-09-11T01:33:23.070Z,57.80
2022-09-11T01:36:14.140Z,43.93
2022-09-11T01:39:00.823Z,47.65
2022-09-11T01:41:30.109Z,47.42
2022-09-11T01:44:12.505Z,45.80
2022-09-11T01:46:44.344Z,50.40
2022-09-11T01:49:17.187Z,51.50
2022-09-11T01:51:44.842Z,52.28
2022-09-11T01:54:17.112Z,47.20
2022-09-11T01:56:52.433Z,47.47
2022-09-11T01:59:27.903Z,41.85
2022-09-11T02:02:07.884Z,42.57
2022-09-11T02:04:41.112Z,50.85
2022-09-11T02:07:19.827Z,49.22
2022-09-11T02:10:00.091Z,49.10
2022-09-11T02:12:33.614Z,46.20
2022-09-11T02:15:00.497Z,40.47
2022-09-11T02:17:52.325Z,47.13
2022-09-11T02:20:21.027Z,47.25
2022-09-11T02:22:49.086Z,48.47
2022-09-11T02:25:16.278Z,52.60
2022-09-11T02:27:42.874Z,50.97
2022-09-11T02:30:10.381Z,45.60
2022-09-11T02:32:40.971Z,56.22
2022-09-11T02:35:09.193Z,54.40
2022-09-11T02:37:59.240Z,52.10
2022-09-11T02:40:56.416Z,51.23
2022-09-11T02:44:27.739Z,52.38
2022-09-11T02:47:15.008Z,50.50
2022-09-11T02:50:13.870Z,49.10
2022-09-11T02:53:10.135Z,46.80
2022-09-11T02:55:56.742Z,51.27
2022-09-11T02:58:28.642Z,45.83
2022-09-11T03:01:00.462Z,47.22
2022-09-11T03:03:27.244Z,51.03
2022-09-11T03:05:54.257Z,44.88
2022-09-11T03:08:20.841Z,43.50
2022-09-11T03:10:49.967Z,57.15
2022-09-11T03:13:16.622Z,54.00
2022-09-11T03:15:46.044Z,54.05
2022-09-11T03:18:14.552Z,55.17
2022-09-11T03:20:44.981Z,59.43
2022-09-11T03:23:11.508Z,50.95
2022-09-11T03:25:38.041Z,64.47
2022-09-11T03:28:04.702Z,69.45
2022-09-11T03:30:32.296Z,69.47
2022-09-11T03:33:00.616Z,56.87
2022-09-11T03:35:27.979Z,59.22
2022-09-11T03:37:55.583Z,59.45
2022-09-11T03:40:23.019Z,57.70
2022-09-11T03:42:49.634Z,57.00
2022-09-11T03:45:16.374Z,58.53
2022-09-11T03:47:43.057Z,53.92
2022-09-11T03:50:10.742Z,63.45
2022-09-11T03:52:37.820Z,61.88
2022-09-11T03:55:06.027Z,66.97
2022-09-11T03:57:41.542Z,57.47
2022-09-11T04:00:10.028Z,62.90
2022-09-11T04:02:36.552Z,65.78
2022-09-11T04:05:04.465Z,57.83
2022-09-11T04:07:31.080Z,47.40
2022-09-11T04:09:58.392Z,58.97
2022-09-11T04:12:25.695Z,59.22
2022-09-11T04:14:52.607Z,54.08
2022-09-11T04:17:19.161Z,58.85
2022-09-11T04:19:45.779Z,60.05
2022-09-11T04:22:12.282Z,60.23
2022-09-11T04:24:38.886Z,52.95
2022-09-11T04:27:05.666Z,53.92
2022-09-11T04:29:33.827Z,63.47
2022-09-11T04:32:00.310Z,57.40
2022-09-11T04:34:26.812Z,57.00
2022-09-11T04:36:55.909Z,58.20
2022-09-11T04:39:22.807Z,51.03
2022-09-11T04:41:49.465Z,52.38
2022-09-11T04:44:16.024Z,53.95
2022-09-11T04:46:42.977Z,46.77
2022-09-11T04:49:10.807Z,57.67
2022-09-11T04:51:39.126Z,61.97
2022-09-11T04:54:06.253Z,50.60
2022-09-11T04:56:34.858Z,52.40
2022-09-11T04:59:05.897Z,51.77
2022-09-11T05:01:34.169Z,47.83
2022-09-11T05:04:01.644Z,53.53
2022-09-11T05:06:30.844Z,59.05
2022-09-11T05:09:02.711Z,51.63
2022-09-11T05:11:32.932Z,55.27
2022-09-11T05:14:00.129Z,65.05
2022-09-11T05:16:28.652Z,64.20
2022-09-11T05:18:56.643Z,69.88
2022-09-11T05:21:26.340Z,81.45
2022-09-11T05:23:55.537Z,83.90
2022-09-11T05:26:24.943Z,124.25
2022-09-11T05:29:00.186Z,68.55
2022-09-11T05:31:28.898Z,60.63
2022-09-11T05:33:56.267Z,57.63
2022-09-11T05:36:23.803Z,52.63
2022-09-11T05:38:50.641Z,62.90
2022-09-11T05:41:17.472Z,56.72
2022-09-11T05:43:44.285Z,55.20
2022-09-11T05:46:13.414Z,56.70
2022-09-11T05:48:40.182Z,52.77
2022-09-11T05:51:12.971Z,53.05
2022-09-11T05:53:39.868Z,60.25
2022-09-11T05:56:19.886Z,66.53
2022-09-11T05:58:48.213Z,55.28
2022-09-11T06:01:19.851Z,44.73
2022-09-11T06:03:48.556Z,50.55
2022-09-11T06:06:16.713Z,48.00
2022-09-11T06:08:47.510Z,49.03
2022-09-11T06:11:16.285Z,47.28
2022-09-11T06:13:44.841Z,46.07
2022-09-11T06:16:18.098Z,45.40
2022-09-11T06:18:49.322Z,47.55
2022-09-11T06:21:20.136Z,37.58
2022-09-11T06:23:48.876Z,46.08
2022-09-11T06:26:21.391Z,42.40
2022-09-11T06:28:48.536Z,38.70
2022-09-11T06:31:17.584Z,38.65
2022-09-11T06:33:45.014Z,41.88
2022-09-11T06:36:17.537Z,33.92
2022-09-11T06:38:44.550Z,29.57
2022-09-11T06:41:14.911Z,26.40
2022-09-11T06:43:42.605Z,25.65
2022-09-11T06:46:14.554Z,25.00
2022-09-11T06:48:43.135Z,23.42
2022-09-11T06:51:15.437Z,22.77
2022-09-11T06:53:42.269Z,21.95
2022-09-11T06:56:12.988Z,21.10
2022-09-11T06:58:40.140Z,19.27
2022-09-11T07:01:10.126Z,19.38
2022-09-11T07:03:37.522Z,23.27
2022-09-11T07:06:05.945Z,24.30
2022-09-11T07:08:32.505Z,21.10
2022-09-11T07:11:06.296Z,21.38
2022-09-11T07:13:37.485Z,23.90
2022-09-11T07:16:07.972Z,27.50
2022-09-11T07:18:36.521Z,22.25
2022-09-11T07:21:23.874Z,22.00
2022-09-11T07:23:54.421Z,29.48
2022-09-11T07:26:22.286Z,28.27
2022-09-11T07:28:50.269Z,34.00
2022-09-11T07:31:21.121Z,32.65
2022-09-11T07:33:49.168Z,33.78
2022-09-11T07:36:18.767Z,31.33
2022-09-11T07:38:47.755Z,37.67
2022-09-11T07:41:15.735Z,38.20
2022-09-11T07:43:45.551Z,35.58
2022-09-11T07:46:13.002Z,34.50
2022-09-11T07:48:40.480Z,32.72
2022-09-11T07:51:09.292Z,36.38
2022-09-11T07:53:38.359Z,35.27
2022-09-11T07:56:07.091Z,37.70
2022-09-11T07:58:38.467Z,33.28
2022-09-11T08:01:06.433Z,37.15
2022-09-11T08:03:34.360Z,30.77
2022-09-11T08:06:02.671Z,30.50
2022-09-11T08:08:30.311Z,32.88
2022-09-11T08:11:04.475Z,31.00
2022-09-11T08:13:31.224Z,28.30
2022-09-11T08:15:57.783Z,27.38
2022-09-11T08:18:24.610Z,31.60
2022-09-11T08:20:51.318Z,24.08
2022-09-11T08:23:17.886Z,26.33
2022-09-11T08:25:44.611Z,26.67
2022-09-11T08:28:11.372Z,25.35
2022-09-11T08:30:40.411Z,26.23
2022-09-11T08:33:08.590Z,25.33
2022-09-11T08:35:35.656Z,20.63
2022-09-11T08:38:03.321Z,22.10
2022-09-11T08:40:31.705Z,22.10
2022-09-11T08:43:02.646Z,23.27
2022-09-11T08:45:34.821Z,24.05
2022-09-11T08:48:01.909Z,23.58
2022-09-11T08:50:35.091Z,17.75
2022-09-11T08:53:03.117Z,24.65
2022-09-11T08:55:52.526Z,22.23
2022-09-11T08:58:46.129Z,22.33
2022-09-11T09:01:37.145Z,20.38
2022-09-11T09:04:33.100Z,19.08
2022-09-11T09:07:17.576Z,11.40
2022-09-11T09:10:14.404Z,18.23
2022-09-11T09:12:58.039Z,21.30
2022-09-11T09:16:20.259Z,19.08
2022-09-11T09:18:55.212Z,19.10
2022-09-11T09:21:35.469Z,20.13
2022-09-11T09:24:08.457Z,17.93
2022-09-11T09:26:40.527Z,18.92
2022-09-11T09:29:14.740Z,18.50
2022-09-11T09:31:44.383Z,18.13
2022-09-11T09:34:18.679Z,21.98
2022-09-11T09:36:56.227Z,17.67
2022-09-11T09:39:24.052Z,29.48
2022-09-11T09:42:13.978Z,20.25
2022-09-11T09:45:13.417Z,20.02
2022-09-11T09:47:44.688Z,18.02
2022-09-11T09:50:29.230Z,19.40
2022-09-11T09:53:33.664Z,19.00
2022-09-11T09:56:01.415Z,18.20
2022-09-11T09:58:34.499Z,18.52
2022-09-11T10:01:01.225Z,18.38
2022-09-11T10:03:27.988Z,19.30
2022-09-11T10:05:56.450Z,15.63
2022-09-11T10:08:35.565Z,17.42
2022-09-11T10:11:07.441Z,19.48
2022-09-11T10:13:38.042Z,16.45
2022-09-11T10:16:19.338Z,19.20
2022-09-11T10:18:47.181Z,17.52
2022-09-11T10:21:13.876Z,13.82
2022-09-11T10:23:47.988Z,14.70
2022-09-11T10:26:21.082Z,14.63
2022-09-11T10:28:48.490Z,15.80
2022-09-11T10:31:18.852Z,11.35
2022-09-11T10:33:58.103Z,12.75
2022-09-11T10:36:27.284Z,15.52
2022-09-11T10:38:55.670Z,14.98
2022-09-11T10:41:25.690Z,12.37
2022-09-11T10:44:14.003Z,10.23
2022-09-11T10:46:42.741Z,10.80
2022-09-11T10:49:21.158Z,10.00
2022-09-11T10:52:08.979Z,10.82
2022-09-11T10:54:45.942Z,8.37
2022-09-11T10:57:45.255Z,12.25
2022-09-11T11:00:21.244Z,8.90
2022-09-11T11:02:56.126Z,9.60
2022-09-11T11:05:53.227Z,12.35
2022-09-11T11:08:31.311Z,14.87
2022-09-11T11:11:14.855Z,14.82
2022-09-11T11:14:20.588Z,14.02
2022-09-11T11:17:24.146Z,11.02
2022-09-11T11:20:22.701Z,10.52
2022-09-11T11:23:16.296Z,10.60
2022-09-11T11:26:17.389Z,14.35
2022-09-11T11:28:46.809Z,12.77
2022-09-11T11:31:51.404Z,9.52
2022-09-11T11:34:43.624Z,9.38
2022-09-11T11:37:11.733Z,10.30
2022-09-11T11:40:10.456Z,10.98
2022-09-11T11:42:46.965Z,8.57
2022-09-11T11:45:27.808Z,6.93
2022-09-11T11:47:55.627Z,8.32
2022-09-11T11:50:33.468Z,7.13
2022-09-11T11:53:24.843Z,13.65
2022-09-11T11:56:08.956Z,6.32
2022-09-11T11:58:51.623Z,9.18
2022-09-11T12:01:29.524Z,6.65
2022-09-11T12:04:16.407Z,8.30
2022-09-11T12:06:43.272Z,8.52
2022-09-11T12:09:12.569Z,9.77
2022-09-11T12:11:39.254Z,11.27
2022-09-11T12:14:07.325Z,8.18
2022-09-11T12:16:35.763Z,8.93
2022-09-11T12:19:04.868Z,7.03
2022-09-11T12:21:31.700Z,6.57
2022-09-11T12:23:58.337Z,7.68
2022-09-11T12:26:26.947Z,7.00
2022-09-11T12:29:15.895Z,8.00
2022-09-11T12:31:51.641Z,8.20
2022-09-11T12:34:47.741Z,6.70
2022-09-11T12:37:26.633Z,6.82
2022-09-11T12:40:04.437Z,6.40
2022-09-11T12:42:31.065Z,10.23
2022-09-11T12:44:59.789Z,7.25
2022-09-11T12:47:35.699Z,7.07
2022-09-11T12:50:05.171Z,8.25
2022-09-11T12:52:40.144Z,7.18
2022-09-11T12:55:27.912Z,8.63
2022-09-11T12:57:55.125Z,6.30
2022-09-11T13:00:28.214Z,6.13
2022-09-11T13:02:58.258Z,6.75
2022-09-11T13:05:40.855Z,6.22
2022-09-11T13:08:17.943Z,8.00
2022-09-11T13:10:46.787Z,7.82
2022-09-11T13:13:35.158Z,6.65
2022-09-11T13:16:25.464Z,10.35
2022-09-11T13:18:59.377Z,9.48
2022-09-11T13:21:26.666Z,5.07
2022-09-11T13:23:53.748Z,7.85
2022-09-11T13:26:27.199Z,6.72
2022-09-11T13:28:56.856Z,5.88
2022-09-11T13:31:38.359Z,5.82
2022-09-11T13:34:13.182Z,6.23
2022-09-11T13:36:40.605Z,6.47
2022-09-11T13:39:09.220Z,7.85
2022-09-11T13:41:44.455Z,6.40
2022-09-11T13:44:46.461Z,6.40
2022-09-11T13:47:31.716Z,6.27
2022-09-11T13:50:05.314Z,8.55
2022-09-11T13:52:34.680Z,6.22
2022-09-11T13:55:10.183Z,8.02
2022-09-11T13:58:00.765Z,8.32
2022-09-11T14:00:48.711Z,7.60
2022-09-11T14:03:21.556Z,6.68
2022-09-11T14:05:56.590Z,6.13
2022-09-11T14:08:36.054Z,6.10
2022-09-11T14:11:11.163Z,6.07
2022-09-11T14:14:06.426Z,9.03
2022-09-11T14:16:36.658Z,6.40
2022-09-11T14:19:13.378Z,7.07
2022-09-11T14:21:46.000Z,6.40
2022-09-11T14:24:37.055Z,7.13
2022-09-11T14:27:23.404Z,6.60
2022-09-11T14:29:55.571Z,7.57
2022-09-11T14:32:33.843Z,6.10
2022-09-11T14:35:09.339Z,11.18
2022-09-11T14:37:41.542Z,7.55
2022-09-11T14:40:16.001Z,17.33
2022-09-11T14:42:43.999Z,6.75
2022-09-11T14:45:23.141Z,6.15
2022-09-11T14:47:50.527Z,9.40
2022-09-11T14:50:17.481Z,8.25
2022-09-11T14:52:44.314Z,7.33
2022-09-11T14:55:15.914Z,6.80
2022-09-11T14:57:42.549Z,8.15
2022-09-11T15:00:10.953Z,9.10
2022-09-11T15:02:37.516Z,7.00
2022-09-11T15:05:07.110Z,7.87
2022-09-11T15:07:35.772Z,6.22
2022-09-11T15:10:02.339Z,11.82
2022-09-11T15:12:29.403Z,8.25
2022-09-11T15:14:58.479Z,8.20
2022-09-11T15:17:31.493Z,8.03
2022-09-11T15:20:00.394Z,11.18
2022-09-11T15:22:27.698Z,8.68
2022-09-11T15:24:56.113Z,8.45
2022-09-11T15:27:25.037Z,8.73
2022-09-11T15:29:51.735Z,7.90
2022-09-11T15:32:18.276Z,8.40
2022-09-11T15:34:45.349Z,7.22
2022-09-11T15:37:12.162Z,9.30
2022-09-11T15:39:38.860Z,7.63
2022-09-11T15:42:07.411Z,7.07
2022-09-11T15:44:36.296Z,8.65
2022-09-11T15:47:07.095Z,8.75
2022-09-11T15:49:40.707Z,8.27
2022-09-11T15:52:07.419Z,5.88
2022-09-11T15:54:33.992Z,9.93
2022-09-11T15:57:00.737Z,7.95
2022-09-11T15:59:27.433Z,7.93
2022-09-11T16:01:54.046Z,8.60
2022-09-11T16:04:21.692Z,10.38
2022-09-11T16:06:49.400Z,10.43
2022-09-11T16:09:21.201Z,9.63
2022-09-11T16:11:48.952Z,8.95
2022-09-11T16:14:30.206Z,7.53
2022-09-11T16:16:58.007Z,7.57
2022-09-11T16:19:27.920Z,10.70
2022-09-11T16:22:00.521Z,7.38
2022-09-11T16:24:28.883Z,11.35
2022-09-11T16:26:56.025Z,8.75
2022-09-11T16:29:51.173Z,7.43
2022-09-11T16:32:28.273Z,7.00
2022-09-11T16:34:56.913Z,7.78
2022-09-11T16:37:23.753Z,8.15
2022-09-11T16:39:50.813Z,6.28
2022-09-11T16:42:21.771Z,9.52
2022-09-11T16:44:49.457Z,6.47
2022-09-11T16:47:17.367Z,10.35
2022-09-11T16:50:05.816Z,8.90
2022-09-11T16:52:31.163Z,6.13
2022-09-11T16:54:57.784Z,7.22
2022-09-11T16:57:24.394Z,6.93
2022-09-11T16:59:50.985Z,7.75
2022-09-11T17:02:17.690Z,5.85
2022-09-11T17:04:44.299Z,7.03
2022-09-11T17:07:10.947Z,5.97
2022-09-11T17:09:37.801Z,6.47
2022-09-11T17:12:04.566Z,8.70
2022-09-11T17:14:31.181Z,9.27
2022-09-11T17:16:57.741Z,8.00
2022-09-11T17:19:24.515Z,6.35
2022-09-11T17:21:51.125Z,8.33
2022-09-11T17:24:21.606Z,6.40
2022-09-11T17:26:50.672Z,8.02
2022-09-11T17:29:19.448Z,8.63
2022-09-11T17:31:46.158Z,5.88
2022-09-11T17:34:12.870Z,7.90
2022-09-11T17:36:40.127Z,8.43
2022-09-11T17:39:07.377Z,6.63
2022-09-11T17:41:34.015Z,9.23
2022-09-11T17:44:00.604Z,7.93
2022-09-11T17:46:27.267Z,7.60
2022-09-11T17:48:53.918Z,8.75
2022-09-11T17:51:26.138Z,8.32
2022-09-11T17:53:58.502Z,6.47
2022-09-11T17:56:30.720Z,6.70
2022-09-11T17:58:59.565Z,9.63
2022-09-11T18:01:27.487Z,7.25
2022-09-11T18:03:56.941Z,8.48
2022-09-11T18:06:28.531Z,7.28
2022-09-11T18:09:01.947Z,8.65
2022-09-11T18:11:31.711Z,13.30
2022-09-11T18:14:00.251Z,13.63
2022-09-11T18:16:27.169Z,14.10
2022-09-11T18:18:54.488Z,10.88
2022-09-11T18:21:21.228Z,8.30
2022-09-11T18:23:49.683Z,9.17
2022-09-11T18:26:19.907Z,10.43
2022-09-11T18:28:46.982Z,13.75
2022-09-11T18:31:13.629Z,10.35
2022-09-11T18:33:40.387Z,10.23
2022-09-11T18:36:11.179Z,12.33
2022-09-11T18:38:37.717Z,8.65
2022-09-11T18:41:04.559Z,9.57
2022-09-11T18:43:31.058Z,10.25
2022-09-11T18:46:02.813Z,9.38
2022-09-11T18:48:29.503Z,10.07
2022-09-11T18:50:56.110Z,13.23
2022-09-11T18:53:23.292Z,10.40
2022-09-11T18:56:00.373Z,13.68
2022-09-11T18:58:31.577Z,11.93
2022-09-11T19:01:00.484Z,12.27
2022-09-11T19:03:30.305Z,10.57
2022-09-11T19:06:03.822Z,10.68
2022-09-11T19:08:31.851Z,10.70
2022-09-11T19:11:00.142Z,12.60
2022-09-11T19:13:26.976Z,12.30
2022-09-11T19:15:57.828Z,12.40
2022-09-11T19:18:25.221Z,13.88
2022-09-11T19:21:00.447Z,14.13
2022-09-11T19:23:31.584Z,14.32
2022-09-11T19:26:05.970Z,14.60
2022-09-11T19:28:35.585Z,12.63
2022-09-11T19:31:02.847Z,13.45
2022-09-11T19:33:30.526Z,11.75
2022-09-11T19:36:02.659Z,14.73
2022-09-11T19:38:36.718Z,13.60
2022-09-11T19:41:05.406Z,17.30
2022-09-11T19:43:34.429Z,13.00
2022-09-11T19:46:02.915Z,12.73
2022-09-11T19:48:30.691Z,14.70
2022-09-11T19:50:57.861Z,13.73
2022-09-11T19:53:24.458Z,14.82
2022-09-11T19:55:55.093Z,13.60
2022-09-11T19:58:24.029Z,13.90
2022-09-11T20:00:51.434Z,14.07
2022-09-11T20:03:19.024Z,15.37
2022-09-11T20:05:46.110Z,15.80
2022-09-11T20:08:16.170Z,17.02
2022-09-11T20:10:45.798Z,17.15
2022-09-11T20:13:12.886Z,18.35
2022-09-11T20:15:40.319Z,14.67
2022-09-11T20:18:07.880Z,15.80
2022-09-11T20:20:36.344Z,15.55
2022-09-11T20:23:03.718Z,15.93
2022-09-11T20:25:30.665Z,15.70
2022-09-11T20:28:00.427Z,15.87
2022-09-11T20:30:27.138Z,17.55
2022-09-11T20:32:53.877Z,19.20
2022-09-11T20:35:20.369Z,18.92
2022-09-11T20:37:46.907Z,17.35
2022-09-11T20:40:13.606Z,18.03
2022-09-11T20:42:40.165Z,16.90
2022-09-11T20:45:07.059Z,19.48
2022-09-11T20:47:33.660Z,20.25
2022-09-11T20:50:00.681Z,16.00
2022-09-11T20:52:27.560Z,15.90
2022-09-11T20:54:54.425Z,17.35
2022-09-11T20:57:21.034Z,17.67
2022-09-11T20:59:47.688Z,16.85
2022-09-11T21:02:14.822Z,17.30
2022-09-11T21:04:41.764Z,17.07
2022-09-11T21:07:08.464Z,17.00
2022-09-11T21:09:35.482Z,19.23
2022-09-11T21:12:02.257Z,20.45
2022-09-11T21:14:28.833Z,19.92
2022-09-11T21:16:55.405Z,17.93
2022-09-11T21:19:21.999Z,17.42
2022-09-11T21:21:48.645Z,19.65
2022-09-11T21:24:15.180Z,21.63
2022-09-11T21:26:42.465Z,17.90
2022-09-11T21:29:12.351Z,20.87
2022-09-11T21:31:38.893Z,21.45
2022-09-11T21:34:05.610Z,21.80
2022-09-11T21:36:33.551Z,19.00
2022-09-11T21:39:00.157Z,25.88
2022-09-11T21:41:26.692Z,21.63
2022-09-11T21:43:53.191Z,20.83
2022-09-11T21:46:20.182Z,21.33
2022-09-11T21:48:46.747Z,21.42
2022-09-11T21:51:16.305Z,22.65
2022-09-11T21:53:45.485Z,19.03
2022-09-11T21:56:24.942Z,22.20
2022-09-11T21:58:52.066Z,19.25
2022-09-11T22:01:20.328Z,26.38
2022-09-11T22:03:47.081Z,23.58
2022-09-11T22:06:14.045Z,19.20
2022-09-11T22:08:43.202Z,19.38
2022-09-11T22:11:11.045Z,22.02
2022-09-11T22:13:38.554Z,21.75
2022-09-11T22:16:11.159Z,22.63
2022-09-11T22:18:39.275Z,19.50
2022-09-11T22:21:07.001Z,18.55
2022-09-11T22:23:33.874Z,18.92
2022-09-11T22:26:04.976Z,19.95
2022-09-11T22:28:31.634Z,19.20
2022-09-11T22:30:58.422Z,19.70
2022-09-11T22:33:25.458Z,19.77
2022-09-11T22:35:52.035Z,20.48
2022-09-11T22:38:18.647Z,18.50
2022-09-11T22:40:45.146Z,21.25
2022-09-11T22:43:11.824Z,19.97
2022-09-11T22:45:38.409Z,19.70
2022-09-11T22:48:05.036Z,19.80
2022-09-11T22:50:33.302Z,20.23
2022-09-11T22:52:59.888Z,22.00
2022-09-11T22:55:26.463Z,21.70
2022-09-11T22:57:53.022Z,20.30
2022-09-11T23:00:19.794Z,22.17
2022-09-11T23:02:46.364Z,21.85
2022-09-11T23:05:31.598Z,24.10
2022-09-11T23:07:58.175Z,21.27
2022-09-11T23:10:25.616Z,22.08
2022-09-11T23:12:53.321Z,20.25
2022-09-11T23:15:19.858Z,21.33
2022-09-11T23:17:46.941Z,19.23
2022-09-11T23:20:13.844Z,19.67
2022-09-11T23:22:40.326Z,22.77
2022-09-11T23:25:07.226Z,22.92
2022-09-11T23:27:33.730Z,20.88
2022-09-11T23:30:00.294Z,22.48
2022-09-11T23:32:26.805Z,21.70
2022-09-11T23:34:53.373Z,21.17
2022-09-11T23:37:19.914Z,21.45
2022-09-11T23:39:46.835Z,24.15
2022-09-11T23:42:13.527Z,22.92
2022-09-11T23:44:40.094Z,21.77
2022-09-11T23:47:06.661Z,20.50
2022-09-11T23:49:36.358Z,24.55
2022-09-11T23:52:04.104Z,19.67
2022-09-11T23:54:30.634Z,22.50
2022-09-11T23:56:57.206Z,18.77
2022-09-11T23:59:23.712Z,24.13
